createdAt,value
2022-09-12T00:02:19.045Z,99132.56
2022-09-12T00:05:21.580Z,99149.16
2022-09-12T00:08:23.649Z,99140.09
2022-09-12T00:11:27.041Z,99141.06
2022-09-12T00:14:28.949Z,99144.56
2022-09-12T00:17:30.872Z,99134.22
2022-09-12T00:20:33.052Z,99148.78
2022-09-12T00:23:35.153Z,99151.31
2022-09-12T00:26:37.700Z,99141.84
2022-09-12T00:29:39.604Z,99143.41
2022-09-12T00:32:41.559Z,99133.50
2022-09-12T00:35:53.054Z,99134.72
2022-09-12T00:38:55.072Z,99138.84
2022-09-12T00:41:57.022Z,99132.41
2022-09-12T00:44:58.938Z,99126.47
2022-09-12T00:48:04.816Z,99122.75
2022-09-12T00:51:07.067Z,99120.50
2022-09-12T00:54:15.404Z,99122.41
2022-09-12T00:57:19.557Z,99116.22
2022-09-12T01:00:25.054Z,99108.28
2022-09-12T01:03:27.105Z,99108.75
2022-09-12T01:06:35.484Z,99114.59
2022-09-12T01:09:39.042Z,99113.31
2022-09-12T01:12:42.763Z,99113.31
2022-09-12T01:15:44.502Z,99090.94
2022-09-12T01:18:59.747Z,99122.91
2022-09-12T01:22:44.735Z,99121.03
2022-09-12T01:26:15.693Z,99114.44
2022-09-12T01:29:51.902Z,99118.28
2022-09-12T01:33:09.117Z,99110.25
2022-09-12T01:36:25.915Z,99103.22
2022-09-12T01:40:06.304Z,99099.75
2022-09-12T01:43:35.852Z,99096.13
2022-09-12T01:46:43.310Z,99091.81
2022-09-12T01:49:56.136Z,99090.25
2022-09-12T01:53:09.989Z,99089.47
2022-09-12T01:56:28.864Z,99088.72
2022-09-12T01:59:39.703Z,99075.34
2022-09-12T02:03:02.368Z,99080.66
2022-09-12T02:06:13.160Z,99066.44
2022-09-12T02:09:41.896Z,99068.84
2022-09-12T02:12:52.646Z,99068.69
2022-09-12T02:16:03.210Z,99062.47
2022-09-12T02:19:21.450Z,99068.25
2022-09-12T02:22:26.712Z,99074.13
2022-09-12T02:25:30.549Z,99068.50
2022-09-12T02:28:36.198Z,99073.94
2022-09-12T02:31:45.084Z,99076.19
2022-09-12T02:34:55.234Z,99075.63
2022-09-12T02:38:09.197Z,99073.13
2022-09-12T02:41:14.223Z,99064.44
2022-09-12T02:44:16.121Z,99068.50
2022-09-12T02:47:25.973Z,99055.38
2022-09-12T02:50:28.165Z,99053.72
2022-09-12T02:53:29.951Z,99059.03
2022-09-12T02:56:31.666Z,99064.91
2022-09-12T02:59:33.553Z,99057.13
2022-09-12T03:02:57.170Z,99069.56
2022-09-12T03:06:02.162Z,99054.22
2022-09-12T03:09:29.965Z,99069.81
2022-09-12T03:13:00.932Z,99069.34
2022-09-12T03:16:44.614Z,99073.69
2022-09-12T03:19:55.606Z,99070.84
2022-09-12T03:23:03.250Z,99064.19
2022-09-12T03:26:16.417Z,99061.56
2022-09-12T03:29:20.035Z,99068.13
2022-09-12T03:32:40.828Z,99065.22
2022-09-12T03:35:43.839Z,99072.47
2022-09-12T03:38:45.711Z,99070.50
2022-09-12T03:41:47.472Z,99068.59
2022-09-12T03:44:49.043Z,99059.69
2022-09-12T03:47:50.688Z,99066.81
2022-09-12T03:50:52.379Z,99080.47
2022-09-12T03:53:54.531Z,99069.75
2022-09-12T03:56:56.292Z,99074.28
2022-09-12T03:59:57.946Z,99078.00
2022-09-12T04:02:59.674Z,99072.91
2022-09-12T04:06:01.386Z,99064.78
2022-09-12T04:09:03.882Z,99074.06
2022-09-12T04:12:06.085Z,99057.56
2022-09-12T04:15:08.509Z,99076.31
2022-09-12T04:18:10.542Z,99067.94
2022-09-12T04:21:16.647Z,99062.66
2022-09-12T04:24:18.384Z,99052.63
2022-09-12T04:27:20.108Z,99058.94
2022-09-12T04:30:21.801Z,99048.31
2022-09-12T04:33:23.714Z,99047.63
2022-09-12T04:36:26.693Z,99051.47
2022-09-12T04:39:28.374Z,99045.38
2022-09-12T04:42:30.140Z,99041.19
2022-09-12T04:45:31.850Z,99041.97
2022-09-12T04:48:33.758Z,99046.16
2022-09-12T04:51:37.145Z,99050.78
2022-09-12T04:54:38.825Z,99062.97
2022-09-12T04:57:40.800Z,99061.03
2022-09-12T05:00:42.447Z,99060.53
2022-09-12T05:03:44.793Z,99072.00
2022-09-12T05:06:47.625Z,99067.25
2022-09-12T05:09:49.399Z,99070.88
2022-09-12T05:12:51.246Z,99074.47
2022-09-12T05:15:57.389Z,99080.34
2022-09-12T05:18:59.348Z,99072.78
2022-09-12T05:22:01.061Z,99073.81
2022-09-12T05:25:02.759Z,99073.59
2022-09-12T05:28:04.465Z,99066.69
2022-09-12T05:31:07.930Z,99072.22
2022-09-12T05:34:10.444Z,99065.00
2022-09-12T05:37:12.688Z,99054.06
2022-09-12T05:40:17.847Z,99069.53
2022-09-12T05:43:20.534Z,99071.09
2022-09-12T05:46:25.751Z,99068.06
2022-09-12T05:49:27.536Z,99066.84
2022-09-12T05:52:29.405Z,99083.06
2022-09-12T05:55:31.559Z,99075.75
2022-09-12T05:58:35.096Z,99072.91
2022-09-12T06:01:36.879Z,99071.81
2022-09-12T06:04:40.996Z,99064.00
2022-09-12T06:07:42.681Z,99048.22
2022-09-12T06:10:44.323Z,99062.06
2022-09-12T06:13:46.144Z,99051.56
2022-09-12T06:16:48.777Z,99061.06
2022-09-12T06:19:51.098Z,99055.75
2022-09-12T06:22:56.046Z,99070.88
2022-09-12T06:25:57.779Z,99047.84
2022-09-12T06:29:01.149Z,99069.81
2022-09-12T06:32:02.987Z,99064.72
2022-09-12T06:35:05.636Z,99061.75
2022-09-12T06:38:07.736Z,99052.72
2022-09-12T06:41:12.327Z,99049.94
2022-09-12T06:44:16.640Z,99077.34
2022-09-12T06:47:18.291Z,99048.50
2022-09-12T06:50:19.904Z,99056.00
2022-09-12T06:53:21.681Z,99051.72
2022-09-12T06:56:25.567Z,99059.69
2022-09-12T06:59:27.239Z,99065.22
2022-09-12T07:02:29.000Z,99062.69
2022-09-12T07:05:30.610Z,99064.44
2022-09-12T07:08:34.238Z,99062.06
2022-09-12T07:11:38.149Z,99075.19
2022-09-12T07:14:39.849Z,99075.94
2022-09-12T07:17:42.090Z,99081.31
2022-09-12T07:20:44.034Z,99068.06
2022-09-12T07:23:46.221Z,99091.41
2022-09-12T07:26:47.920Z,99083.03
2022-09-12T07:29:50.085Z,99072.13
2022-09-12T07:32:55.224Z,99082.41
2022-09-12T07:36:03.769Z,99075.09
2022-09-12T07:39:06.029Z,99075.56
2022-09-12T07:42:07.912Z,99076.81
2022-09-12T07:45:10.310Z,99070.53
2022-09-12T07:48:12.004Z,99091.03
2022-09-12T07:51:13.662Z,99088.91
2022-09-12T07:54:15.863Z,99091.53
2022-09-12T07:57:17.536Z,99079.31
2022-09-12T08:00:19.609Z,99077.34
2022-09-12T08:03:21.256Z,99079.31
2022-09-12T08:06:24.305Z,99094.31
2022-09-12T08:09:26.014Z,99091.03
2022-09-12T08:12:28.206Z,99089.31
2022-09-12T08:15:31.260Z,99085.28
2022-09-12T08:18:33.393Z,99082.66
2022-09-12T08:21:35.276Z,99093.91
2022-09-12T08:24:39.267Z,99075.19
2022-09-12T08:27:43.077Z,99095.03
2022-09-12T08:30:44.816Z,99098.72
2022-09-12T08:33:46.867Z,99098.03
2022-09-12T08:36:48.537Z,99094.25
2022-09-12T08:39:50.158Z,99085.66
2022-09-12T08:43:05.826Z,99087.72
2022-09-12T08:46:27.670Z,99086.25
2022-09-12T08:49:44.549Z,99086.72
2022-09-12T08:53:04.488Z,99081.25
2022-09-12T08:56:09.242Z,99085.22
2022-09-12T08:59:10.973Z,99081.31
2022-09-12T09:02:28.811Z,99082.47
2022-09-12T09:05:51.540Z,99066.38
2022-09-12T09:09:18.419Z,99080.88
2022-09-12T09:12:39.160Z,99084.81
2022-09-12T09:15:59.729Z,99080.50
2022-09-12T09:19:06.615Z,99078.09
2022-09-12T09:22:16.877Z,99076.50
2022-09-12T09:25:25.668Z,99077.66
2022-09-12T09:28:52.895Z,99080.88
2022-09-12T09:31:58.597Z,99071.44
2022-09-12T09:35:36.511Z,99058.84
2022-09-12T09:39:00.318Z,99074.88
2022-09-12T09:42:30.456Z,99068.47
2022-09-12T09:45:32.451Z,99065.47
2022-09-12T09:48:37.137Z,99060.38
2022-09-12T09:51:41.701Z,99064.09
2022-09-12T09:54:50.203Z,99058.72
2022-09-12T09:57:53.379Z,99059.13
2022-09-12T10:01:00.105Z,99060.50
2022-09-12T10:04:01.867Z,99055.34
2022-09-12T10:07:04.542Z,99063.25
2022-09-12T10:10:22.838Z,99050.19
2022-09-12T10:13:53.369Z,99060.53
2022-09-12T10:16:55.291Z,99050.91
2022-09-12T10:20:17.543Z,99042.94
2022-09-12T10:23:19.669Z,99048.78
2022-09-12T10:26:24.442Z,99039.16
2022-09-12T10:29:30.336Z,99050.03
2022-09-12T10:32:38.159Z,99048.16
2022-09-12T10:35:48.052Z,99046.22
2022-09-12T10:38:52.899Z,99037.16
2022-09-12T10:41:55.568Z,99045.41
2022-09-12T10:44:57.200Z,99031.66
2022-09-12T10:48:22.003Z,99026.13
2022-09-12T10:51:23.630Z,99024.44
2022-09-12T10:54:28.017Z,99024.66
2022-09-12T10:57:54.965Z,99017.41
2022-09-12T11:01:23.454Z,99002.78
2022-09-12T11:04:50.128Z,99009.81
2022-09-12T11:08:03.557Z,98997.47
2022-09-12T11:11:39.277Z,99009.34
2022-09-12T11:14:50.066Z,99013.59
2022-09-12T11:18:03.690Z,99006.22
2022-09-12T11:21:31.774Z,98999.47
2022-09-12T11:24:59.076Z,98989.66
2022-09-12T11:28:28.725Z,98991.66
2022-09-12T11:31:55.418Z,98992.53
2022-09-12T11:35:24.689Z,98971.91
2022-09-12T11:38:34.147Z,98983.16
2022-09-12T11:41:39.770Z,98978.06
2022-09-12T11:44:47.547Z,98968.47
2022-09-12T11:47:55.883Z,98967.78
2022-09-12T11:50:59.859Z,98954.63
2022-09-12T11:54:23.316Z,98958.94
2022-09-12T11:57:47.409Z,98955.50
2022-09-12T12:00:56.362Z,98958.09
2022-09-12T12:04:03.869Z,98957.69
2022-09-12T12:07:10.699Z,98951.72
2022-09-12T12:10:43.320Z,98949.16
2022-09-12T12:13:57.234Z,98948.63
2022-09-12T12:16:59.289Z,98943.31
2022-09-12T12:20:07.675Z,98946.28
2022-09-12T12:23:29.566Z,98940.66
2022-09-12T12:26:43.565Z,98944.91
2022-09-12T12:29:45.469Z,98930.13
2022-09-12T12:32:47.368Z,98939.28
2022-09-12T12:36:01.612Z,98939.78
2022-09-12T12:39:34.084Z,98938.50
2022-09-12T12:42:35.677Z,98929.38
2022-09-12T12:45:37.286Z,98931.81
2022-09-12T12:49:18.750Z,98930.44
2022-09-12T12:52:29.185Z,98935.91
2022-09-12T12:55:45.627Z,98916.63
2022-09-12T12:58:47.430Z,98909.53
2022-09-12T13:01:55.159Z,98907.97
2022-09-12T13:04:59.872Z,98907.19
2022-09-12T13:08:12.029Z,98891.50
2022-09-12T13:11:28.658Z,98884.72
2022-09-12T13:14:59.367Z,98881.97
2022-09-12T13:18:04.312Z,98884.09
2022-09-12T13:21:14.525Z,98878.03
2022-09-12T13:24:17.185Z,98880.31
2022-09-12T13:27:26.415Z,98879.84
2022-09-12T13:30:31.510Z,98879.44
2022-09-12T13:33:39.466Z,98869.53
2022-09-12T13:36:53.089Z,98867.41
2022-09-12T13:40:32.518Z,98862.66
2022-09-12T13:43:43.566Z,98862.09
2022-09-12T13:46:45.922Z,98852.00
2022-09-12T13:49:48.475Z,98846.16
2022-09-12T13:52:55.039Z,98848.91
2022-09-12T13:55:59.206Z,98846.66
2022-09-12T13:59:02.617Z,98832.91
2022-09-12T14:02:20.729Z,98835.13
2022-09-12T14:05:26.274Z,98827.19
2022-09-12T14:08:27.940Z,98823.66
2022-09-12T14:11:33.871Z,98823.22
2022-09-12T14:14:43.971Z,98821.53
2022-09-12T14:17:54.849Z,98820.56
2022-09-12T14:21:02.021Z,98825.59
2022-09-12T14:24:06.272Z,98819.00
2022-09-12T14:27:07.955Z,98816.91
2022-09-12T14:30:22.943Z,98813.13
2022-09-12T14:33:24.635Z,98808.28
2022-09-12T14:36:33.959Z,98807.31
2022-09-12T14:39:44.095Z,98816.03
2022-09-12T14:42:46.921Z,98811.16
2022-09-12T14:46:01.342Z,98809.94
2022-09-12T14:49:14.193Z,98803.75
2022-09-12T14:52:29.708Z,98803.88
2022-09-12T14:55:32.200Z,98797.06
2022-09-12T14:58:34.284Z,98802.06
2022-09-12T15:01:36.082Z,98802.22
2022-09-12T15:04:42.707Z,98785.94
2022-09-12T15:07:48.377Z,98787.63
2022-09-12T15:10:50.697Z,98781.72
2022-09-12T15:13:52.753Z,98778.88
2022-09-12T15:16:54.477Z,98779.19
2022-09-12T15:19:56.045Z,98767.66
2022-09-12T15:22:57.981Z,98768.59
2022-09-12T15:26:00.018Z,98767.53
2022-09-12T15:29:01.625Z,98768.53
2022-09-12T15:32:04.201Z,98757.69
2022-09-12T15:35:25.616Z,98760.50
2022-09-12T15:38:27.395Z,98761.63
2022-09-12T15:41:38.629Z,98765.22
2022-09-12T15:44:41.157Z,98760.38
2022-09-12T15:47:43.030Z,98758.09
2022-09-12T15:50:44.839Z,98760.56
2022-09-12T15:53:48.466Z,98751.38
2022-09-12T15:56:50.317Z,98742.22
2022-09-12T15:59:52.698Z,98750.72
2022-09-12T16:02:54.659Z,98722.59
2022-09-12T16:06:02.631Z,98747.50
2022-09-12T16:09:04.447Z,98745.03
2022-09-12T16:12:06.547Z,98739.22
2022-09-12T16:15:12.415Z,98736.75
2022-09-12T16:18:14.201Z,98733.13
2022-09-12T16:21:16.212Z,98731.91
2022-09-12T16:24:17.857Z,98723.00
2022-09-12T16:27:19.711Z,98733.66
2022-09-12T16:30:21.441Z,98739.91
2022-09-12T16:33:23.184Z,98729.63
2022-09-12T16:36:24.829Z,98733.63
2022-09-12T16:39:26.441Z,98740.88
2022-09-12T16:42:30.513Z,98732.19
2022-09-12T16:45:32.714Z,98738.19
2022-09-12T16:48:34.725Z,98723.19
2022-09-12T16:51:36.844Z,98733.94
2022-09-12T16:54:48.174Z,98737.19
2022-09-12T16:57:49.982Z,98747.59
2022-09-12T17:01:03.525Z,98736.22
2022-09-12T17:04:05.537Z,98735.28
2022-09-12T17:07:08.016Z,98732.03
2022-09-12T17:10:10.059Z,98732.66
2022-09-12T17:13:11.936Z,98732.75
2022-09-12T17:16:14.101Z,98717.72
2022-09-12T17:19:22.115Z,98735.59
2022-09-12T17:22:23.841Z,98731.53
2022-09-12T17:25:27.850Z,98720.69
2022-09-12T17:28:29.723Z,98716.25
2022-09-12T17:31:31.869Z,98715.47
2022-09-12T17:34:33.511Z,98723.56
2022-09-12T17:37:35.912Z,98718.22
2022-09-12T17:40:58.593Z,98727.66
2022-09-12T17:44:01.498Z,98732.53
2022-09-12T17:47:05.165Z,98730.78
2022-09-12T17:50:30.469Z,98717.22
2022-09-12T17:53:29.189Z,98721.25
2022-09-12T17:56:32.305Z,98728.72
2022-09-12T17:59:34.011Z,98720.72
2022-09-12T18:02:36.072Z,98713.81
2022-09-12T18:05:45.512Z,98712.75
2022-09-12T18:08:47.590Z,98723.81
2022-09-12T18:11:50.269Z,98723.50
2022-09-12T18:14:51.868Z,98726.22
2022-09-12T18:17:53.897Z,98734.47
2022-09-12T18:20:55.583Z,98728.28
2022-09-12T18:23:59.299Z,98727.16
2022-09-12T18:27:02.045Z,98742.47
2022-09-12T18:30:20.541Z,98752.34
2022-09-12T18:33:24.306Z,98752.41
2022-09-12T18:36:26.620Z,98742.28
2022-09-12T18:39:28.395Z,98749.38
2022-09-12T18:42:30.056Z,98755.63
2022-09-12T18:45:31.759Z,98755.66
2022-09-12T18:48:33.976Z,98745.13
2022-09-12T18:51:37.008Z,98740.03
2022-09-12T18:54:38.628Z,98736.53
2022-09-12T18:57:42.148Z,98737.75
2022-09-12T19:00:48.065Z,98735.78
2022-09-12T19:03:49.740Z,98743.66
2022-09-12T19:06:51.423Z,98742.88
2022-09-12T19:09:53.136Z,98742.16
2022-09-12T19:12:55.728Z,98728.09
2022-09-12T19:15:57.686Z,98737.13
2022-09-12T19:18:59.845Z,98724.56
2022-09-12T19:22:01.551Z,98706.53
2022-09-12T19:25:03.360Z,98710.47
2022-09-12T19:28:05.376Z,98717.91
2022-09-12T19:31:08.913Z,98724.59
2022-09-12T19:34:12.197Z,98739.53
2022-09-12T19:37:13.832Z,98728.94
2022-09-12T19:40:15.584Z,98711.00
2022-09-12T19:43:17.276Z,98736.03
2022-09-12T19:46:21.698Z,98728.25
2022-09-12T19:49:23.312Z,98719.66
2022-09-12T19:52:25.133Z,98720.44
2022-09-12T19:55:26.760Z,98734.50
2022-09-12T19:58:29.605Z,98716.47
2022-09-12T20:01:31.577Z,98710.66
2022-09-12T20:04:33.663Z,98712.22
2022-09-12T20:07:35.384Z,98694.59
2022-09-12T20:10:37.401Z,98727.03
2022-09-12T20:13:39.040Z,98718.44
2022-09-12T20:16:40.903Z,98718.09
2022-09-12T20:19:42.498Z,98722.00
2022-09-12T20:22:44.123Z,98710.25
2022-09-12T20:25:45.844Z,98713.34
2022-09-12T20:28:47.516Z,98718.47
2022-09-12T20:31:49.208Z,98717.28
2022-09-12T20:34:51.737Z,98721.53
2022-09-12T20:37:53.360Z,98700.09
2022-09-12T20:40:54.979Z,98698.50
2022-09-12T20:43:57.539Z,98707.53
2022-09-12T20:46:59.784Z,98706.72
2022-09-12T20:50:01.581Z,98696.16
2022-09-12T20:53:03.321Z,98675.03
2022-09-12T20:56:07.850Z,98690.72
2022-09-12T20:59:12.206Z,98673.53
2022-09-12T21:02:15.169Z,98675.88
2022-09-12T21:05:17.152Z,98659.03
2022-09-12T21:08:18.785Z,98663.75
2022-09-12T21:11:21.250Z,98676.28
2022-09-12T21:14:23.163Z,98667.66
2022-09-12T21:17:25.214Z,98675.50
2022-09-12T21:20:26.869Z,98662.22
2022-09-12T21:23:29.005Z,98668.81
2022-09-12T21:26:31.372Z,98652.78
2022-09-12T21:29:33.111Z,98665.69
2022-09-12T21:32:36.009Z,98660.19
2022-09-12T21:35:37.914Z,98659.03
2022-09-12T21:38:39.746Z,98664.50
2022-09-12T21:41:41.380Z,98660.19
2022-09-12T21:44:43.104Z,98650.03
2022-09-12T21:47:45.337Z,98643.78
2022-09-12T21:50:50.592Z,98669.22
2022-09-12T21:53:52.637Z,98656.69
2022-09-12T21:56:54.524Z,98680.97
2022-09-12T21:59:56.469Z,98666.91
2022-09-12T22:02:59.199Z,98670.81
2022-09-12T22:06:03.838Z,98675.47
2022-09-12T22:09:07.489Z,98670.78
2022-09-12T22:12:09.227Z,98675.06
2022-09-12T22:15:36.365Z,98688.41
2022-09-12T22:18:34.402Z,98685.66
2022-09-12T22:21:56.179Z,98686.06
2022-09-12T22:24:57.913Z,98677.41
2022-09-12T22:27:59.831Z,98679.00
2022-09-12T22:31:01.680Z,98673.53
2022-09-12T22:34:04.146Z,98688.00
2022-09-12T22:37:06.318Z,98669.59
2022-09-12T22:40:08.965Z,98671.94
2022-09-12T22:43:11.573Z,98668.38
2022-09-12T22:46:13.353Z,98663.63
2022-09-12T22:49:15.283Z,98661.28
2022-09-12T22:52:17.581Z,98672.53
2022-09-12T22:55:19.297Z,98659.66
2022-09-12T22:58:21.074Z,98660.66
2022-09-12T23:01:23.999Z,98643.44
2022-09-12T23:04:25.727Z,98659.91
2022-09-12T23:07:27.462Z,98651.44
2022-09-12T23:10:29.042Z,98660.34
2022-09-12T23:13:31.110Z,98658.28
2022-09-12T23:16:33.157Z,98648.47
2022-09-12T23:19:34.797Z,98638.75
2022-09-12T23:22:37.295Z,98633.72
2022-09-12T23:25:38.926Z,98634.63
2022-09-12T23:28:42.246Z,98632.72
2022-09-12T23:31:44.215Z,98633.16
2022-09-12T23:34:46.867Z,98634.69
2022-09-12T23:37:48.498Z,98627.63
2022-09-12T23:40:50.129Z,98629.59
2022-09-12T23:43:51.811Z,98629.03
2022-09-12T23:46:53.496Z,98627.44
2022-09-12T23:49:55.154Z,98634.41
2022-09-12T23:52:56.841Z,98621.84
2022-09-12T23:55:59.322Z,98626.50
2022-09-12T23:59:00.939Z,98626.81
